sensor_id;sensor_type;location;lat;lon;timestamp;temperature;humidity
64654;DHT22;51065;48.884;12.598;2022-12-29T00:01:51;1.80;99.90
64654;DHT22;51065;48.884;12.598;2022-12-29T00:04:18;1.90;99.90
64654;DHT22;51065;48.884;12.598;2022-12-29T00:06:43;2.00;99.90
64654;DHT22;51065;48.884;12.598;2022-12-29T00:09:11;2.10;99.90
64654;DHT22;51065;48.884;12.598;2022-12-29T00:11:38;2.10;99.90
64654;DHT22;51065;48.884;12.598;2022-12-29T00:14:03;2.10;99.90
64654;DHT22;51065;48.884;12.598;2022-12-29T00:16:47;2.00;99.90
64654;DHT22;51065;48.884;12.598;2022-12-29T00:19:13;2.00;99.90
64654;DHT22;51065;48.884;12.598;2022-12-29T00:21:58;2.00;99.90
64654;DHT22;51065;48.884;12.598;2022-12-29T00:24:43;2.00;99.90
64654;DHT22;51065;48.884;12.598;2022-12-29T00:27:28;1.90;99.90
64654;DHT22;51065;48.884;12.598;2022-12-29T00:30:16;2.00;99.90
64654;DHT22;51065;48.884;12.598;2022-12-29T00:33:08;1.90;99.90
64654;DHT22;51065;48.884;12.598;2022-12-29T00:35:55;1.80;99.90
64654;DHT22;51065;48.884;12.598;2022-12-29T00:38:22;1.70;99.90
64654;DHT22;51065;48.884;12.598;2022-12-29T00:41:07;1.80;99.90
64654;DHT22;51065;48.884;12.598;2022-12-29T00:43:51;1.80;99.90
64654;DHT22;51065;48.884;12.598;2022-12-29T00:46:33;1.90;99.90
64654;DHT22;51065;48.884;12.598;2022-12-29T00:48:59;2.00;99.90
64654;DHT22;51065;48.884;12.598;2022-12-29T00:51:43;2.10;99.90
64654;DHT22;51065;48.884;12.598;2022-12-29T00:54:09;2.20;99.90
64654;DHT22;51065;48.884;12.598;2022-12-29T00:56:34;2.20;99.90
64654;DHT22;51065;48.884;12.598;2022-12-29T00:59:04;2.10;99.90
64654;DHT22;51065;48.884;12.598;2022-12-29T01:01:30;2.10;99.90
64654;DHT22;51065;48.884;12.598;2022-12-29T01:03:56;2.10;99.90
64654;DHT22;51065;48.884;12.598;2022-12-29T01:06:23;2.10;99.90
64654;DHT22;51065;48.884;12.598;2022-12-29T01:08:48;2.10;99.90
64654;DHT22;51065;48.884;12.598;2022-12-29T01:11:34;2.00;99.90
64654;DHT22;51065;48.884;12.598;2022-12-29T01:13:59;2.00;99.90
64654;DHT22;51065;48.884;12.598;2022-12-29T01:16:25;1.80;99.90
64654;DHT22;51065;48.884;12.598;2022-12-29T01:18:50;1.70;99.90
64654;DHT22;51065;48.884;12.598;2022-12-29T01:21:16;1.70;99.90
64654;DHT22;51065;48.884;12.598;2022-12-29T01:23:41;1.70;99.90
64654;DHT22;51065;48.884;12.598;2022-12-29T01:26:14;1.60;99.90
64654;DHT22;51065;48.884;12.598;2022-12-29T01:28:41;1.60;99.90
64654;DHT22;51065;48.884;12.598;2022-12-29T01:31:11;1.60;99.90
64654;DHT22;51065;48.884;12.598;2022-12-29T01:33:37;1.50;99.90
64654;DHT22;51065;48.884;12.598;2022-12-29T01:36:03;1.50;99.90
64654;DHT22;51065;48.884;12.598;2022-12-29T01:38:30;1.50;99.90
64654;DHT22;51065;48.884;12.598;2022-12-29T01:40:55;1.60;99.90
64654;DHT22;51065;48.884;12.598;2022-12-29T01:43:21;1.60;99.90
64654;DHT22;51065;48.884;12.598;2022-12-29T01:45:51;1.60;99.90
64654;DHT22;51065;48.884;12.598;2022-12-29T01:48:19;1.60;99.90
64654;DHT22;51065;48.884;12.598;2022-12-29T01:50:51;1.50;99.90
64654;DHT22;51065;48.884;12.598;2022-12-29T01:53:27;1.50;99.90
64654;DHT22;51065;48.884;12.598;2022-12-29T01:55:59;1.40;99.90
64654;DHT22;51065;48.884;12.598;2022-12-29T01:58:30;1.40;99.90
64654;DHT22;51065;48.884;12.598;2022-12-29T02:00:57;1.40;99.90
64654;DHT22;51065;48.884;12.598;2022-12-29T02:03:25;1.30;99.90
64654;DHT22;51065;48.884;12.598;2022-12-29T02:06:04;1.30;99.90
64654;DHT22;51065;48.884;12.598;2022-12-29T02:08:32;1.30;99.90
64654;DHT22;51065;48.884;12.598;2022-12-29T02:10:59;1.20;99.90
64654;DHT22;51065;48.884;12.598;2022-12-29T02:13:25;1.20;99.90
64654;DHT22;51065;48.884;12.598;2022-12-29T02:27:34;1.20;99.90
64654;DHT22;51065;48.884;12.598;2022-12-29T02:32:52;1.10;99.90
64654;DHT22;51065;48.884;12.598;2022-12-29T02:35:29;1.10;99.90
64654;DHT22;51065;48.884;12.598;2022-12-29T02:38:31;1.00;99.90
64654;DHT22;51065;48.884;12.598;2022-12-29T02:41:23;0.90;99.90
64654;DHT22;51065;48.884;12.598;2022-12-29T02:46:47;0.90;99.90
64654;DHT22;51065;48.884;12.598;2022-12-29T02:49:26;1.00;99.90
64654;DHT22;51065;48.884;12.598;2022-12-29T02:52:00;1.10;99.90
64654;DHT22;51065;48.884;12.598;2022-12-29T02:54:27;1.10;99.90
64654;DHT22;51065;48.884;12.598;2022-12-29T02:57:14;1.10;99.90
64654;DHT22;51065;48.884;12.598;2022-12-29T02:59:41;1.00;99.90
64654;DHT22;51065;48.884;12.598;2022-12-29T03:02:26;1.00;99.90
64654;DHT22;51065;48.884;12.598;2022-12-29T03:07:55;1.10;99.90
64654;DHT22;51065;48.884;12.598;2022-12-29T03:11:02;1.20;99.90
64654;DHT22;51065;48.884;12.598;2022-12-29T03:13:47;1.20;99.90
64654;DHT22;51065;48.884;12.598;2022-12-29T03:16:44;1.30;99.90
64654;DHT22;51065;48.884;12.598;2022-12-29T03:19:32;1.40;99.90
64654;DHT22;51065;48.884;12.598;2022-12-29T03:22:08;1.30;99.90
64654;DHT22;51065;48.884;12.598;2022-12-29T03:25:01;1.20;99.90
64654;DHT22;51065;48.884;12.598;2022-12-29T03:27:31;1.10;99.90
64654;DHT22;51065;48.884;12.598;2022-12-29T03:30:01;1.00;99.90
64654;DHT22;51065;48.884;12.598;2022-12-29T03:32:50;1.10;99.90
64654;DHT22;51065;48.884;12.598;2022-12-29T03:35:20;1.10;99.90
64654;DHT22;51065;48.884;12.598;2022-12-29T03:37:55;1.10;99.90
64654;DHT22;51065;48.884;12.598;2022-12-29T03:40:24;1.20;99.90
64654;DHT22;51065;48.884;12.598;2022-12-29T03:42:52;1.30;99.90
64654;DHT22;51065;48.884;12.598;2022-12-29T03:45:18;1.40;99.90
64654;DHT22;51065;48.884;12.598;2022-12-29T03:47:44;1.60;99.90
64654;DHT22;51065;48.884;12.598;2022-12-29T03:50:12;1.70;99.90
64654;DHT22;51065;48.884;12.598;2022-12-29T03:52:38;1.70;99.90
64654;DHT22;51065;48.884;12.598;2022-12-29T03:55:04;1.80;99.90
64654;DHT22;51065;48.884;12.598;2022-12-29T03:57:29;1.80;99.90
64654;DHT22;51065;48.884;12.598;2022-12-29T03:59:55;1.80;99.90
64654;DHT22;51065;48.884;12.598;2022-12-29T04:02:20;1.80;99.90
64654;DHT22;51065;48.884;12.598;2022-12-29T04:04:46;1.80;99.90
64654;DHT22;51065;48.884;12.598;2022-12-29T04:07:11;1.90;99.90
64654;DHT22;51065;48.884;12.598;2022-12-29T04:09:37;1.90;99.90
64654;DHT22;51065;48.884;12.598;2022-12-29T04:12:03;2.00;99.90
64654;DHT22;51065;48.884;12.598;2022-12-29T04:14:28;2.00;99.90
64654;DHT22;51065;48.884;12.598;2022-12-29T04:16:54;2.00;99.90
64654;DHT22;51065;48.884;12.598;2022-12-29T04:19:19;2.10;99.90
64654;DHT22;51065;48.884;12.598;2022-12-29T04:21:45;2.10;99.90
64654;DHT22;51065;48.884;12.598;2022-12-29T04:24:10;2.10;99.90
64654;DHT22;51065;48.884;12.598;2022-12-29T04:26:38;2.10;99.90
64654;DHT22;51065;48.884;12.598;2022-12-29T04:29:03;2.10;99.90
64654;DHT22;51065;48.884;12.598;2022-12-29T04:31:29;2.10;99.90
64654;DHT22;51065;48.884;12.598;2022-12-29T04:33:54;2.20;99.90
64654;DHT22;51065;48.884;12.598;2022-12-29T04:36:22;2.20;99.90
64654;DHT22;51065;48.884;12.598;2022-12-29T04:38:48;2.20;99.90
64654;DHT22;51065;48.884;12.598;2022-12-29T04:41:13;2.40;99.90
64654;DHT22;51065;48.884;12.598;2022-12-29T04:43:39;2.40;99.90
64654;DHT22;51065;48.884;12.598;2022-12-29T04:46:05;2.40;99.90
64654;DHT22;51065;48.884;12.598;2022-12-29T04:48:30;2.40;99.90
64654;DHT22;51065;48.884;12.598;2022-12-29T04:50:56;2.40;99.90
64654;DHT22;51065;48.884;12.598;2022-12-29T04:53:25;2.50;99.90
64654;DHT22;51065;48.884;12.598;2022-12-29T04:55:52;2.50;99.90
64654;DHT22;51065;48.884;12.598;2022-12-29T04:58:19;2.40;99.90
64654;DHT22;51065;48.884;12.598;2022-12-29T05:00:44;2.40;99.90
64654;DHT22;51065;48.884;12.598;2022-12-29T05:03:10;2.50;99.90
64654;DHT22;51065;48.884;12.598;2022-12-29T05:05:36;2.50;99.90
64654;DHT22;51065;48.884;12.598;2022-12-29T05:08:01;2.50;99.90
64654;DHT22;51065;48.884;12.598;2022-12-29T05:10:27;2.60;99.90
64654;DHT22;51065;48.884;12.598;2022-12-29T05:12:52;2.50;99.90
64654;DHT22;51065;48.884;12.598;2022-12-29T05:15:18;2.50;99.90
64654;DHT22;51065;48.884;12.598;2022-12-29T05:17:44;2.60;99.90
64654;DHT22;51065;48.884;12.598;2022-12-29T05:20:10;2.60;99.90
64654;DHT22;51065;48.884;12.598;2022-12-29T05:22:36;2.60;99.90
64654;DHT22;51065;48.884;12.598;2022-12-29T05:25:02;2.60;99.90
64654;DHT22;51065;48.884;12.598;2022-12-29T05:27:27;2.60;99.90
64654;DHT22;51065;48.884;12.598;2022-12-29T05:29:53;2.70;99.90
64654;DHT22;51065;48.884;12.598;2022-12-29T05:32:19;2.70;99.90
64654;DHT22;51065;48.884;12.598;2022-12-29T05:34:44;2.70;99.90
64654;DHT22;51065;48.884;12.598;2022-12-29T05:37:10;2.80;99.90
64654;DHT22;51065;48.884;12.598;2022-12-29T05:39:35;2.80;99.90
64654;DHT22;51065;48.884;12.598;2022-12-29T05:42:01;2.80;99.90
64654;DHT22;51065;48.884;12.598;2022-12-29T05:44:26;2.80;99.90
64654;DHT22;51065;48.884;12.598;2022-12-29T05:46:52;2.80;99.90
64654;DHT22;51065;48.884;12.598;2022-12-29T05:49:18;2.80;99.90
64654;DHT22;51065;48.884;12.598;2022-12-29T05:51:44;2.80;99.90
64654;DHT22;51065;48.884;12.598;2022-12-29T05:54:09;2.80;99.90
64654;DHT22;51065;48.884;12.598;2022-12-29T05:56:35;2.80;99.90
64654;DHT22;51065;48.884;12.598;2022-12-29T05:59:00;2.80;99.90
64654;DHT22;51065;48.884;12.598;2022-12-29T06:01:26;2.70;99.90
64654;DHT22;51065;48.884;12.598;2022-12-29T06:03:52;2.80;99.90
64654;DHT22;51065;48.884;12.598;2022-12-29T06:06:17;2.70;99.90
64654;DHT22;51065;48.884;12.598;2022-12-29T06:08:43;2.80;99.90
64654;DHT22;51065;48.884;12.598;2022-12-29T06:11:09;2.80;99.90
64654;DHT22;51065;48.884;12.598;2022-12-29T06:13:34;2.80;99.90
64654;DHT22;51065;48.884;12.598;2022-12-29T06:16:00;2.80;99.90
64654;DHT22;51065;48.884;12.598;2022-12-29T06:18:26;2.80;99.90
64654;DHT22;51065;48.884;12.598;2022-12-29T06:20:51;2.80;99.90
64654;DHT22;51065;48.884;12.598;2022-12-29T06:23:17;2.80;99.90
64654;DHT22;51065;48.884;12.598;2022-12-29T06:25:44;2.90;99.90
64654;DHT22;51065;48.884;12.598;2022-12-29T06:28:09;2.90;99.90
64654;DHT22;51065;48.884;12.598;2022-12-29T06:30:36;2.90;99.90
64654;DHT22;51065;48.884;12.598;2022-12-29T06:33:01;3.00;99.90
64654;DHT22;51065;48.884;12.598;2022-12-29T06:35:27;2.90;99.90
64654;DHT22;51065;48.884;12.598;2022-12-29T06:37:52;3.00;99.90
64654;DHT22;51065;48.884;12.598;2022-12-29T06:40:18;3.00;99.90
64654;DHT22;51065;48.884;12.598;2022-12-29T06:42:43;3.10;99.90
64654;DHT22;51065;48.884;12.598;2022-12-29T06:45:09;3.00;99.90
64654;DHT22;51065;48.884;12.598;2022-12-29T06:47:35;3.10;99.90
64654;DHT22;51065;48.884;12.598;2022-12-29T06:50:01;3.10;99.90
64654;DHT22;51065;48.884;12.598;2022-12-29T06:52:28;3.20;99.90
64654;DHT22;51065;48.884;12.598;2022-12-29T06:54:54;3.30;99.90
64654;DHT22;51065;48.884;12.598;2022-12-29T06:57:20;3.30;99.90
64654;DHT22;51065;48.884;12.598;2022-12-29T06:59:46;3.40;99.90
64654;DHT22;51065;48.884;12.598;2022-12-29T07:02:12;3.40;99.90
64654;DHT22;51065;48.884;12.598;2022-12-29T07:04:39;3.30;99.90
64654;DHT22;51065;48.884;12.598;2022-12-29T07:07:05;3.40;99.90
64654;DHT22;51065;48.884;12.598;2022-12-29T07:09:30;3.40;99.90
64654;DHT22;51065;48.884;12.598;2022-12-29T07:11:56;3.40;99.90
64654;DHT22;51065;48.884;12.598;2022-12-29T07:14:21;3.40;99.90
64654;DHT22;51065;48.884;12.598;2022-12-29T07:16:47;3.40;99.90
64654;DHT22;51065;48.884;12.598;2022-12-29T07:19:12;3.50;99.90
64654;DHT22;51065;48.884;12.598;2022-12-29T07:21:38;3.50;99.90
64654;DHT22;51065;48.884;12.598;2022-12-29T07:24:04;3.50;99.90
64654;DHT22;51065;48.884;12.598;2022-12-29T07:26:29;3.50;99.90
64654;DHT22;51065;48.884;12.598;2022-12-29T07:28:55;3.50;99.90
64654;DHT22;51065;48.884;12.598;2022-12-29T07:31:22;3.60;99.90
64654;DHT22;51065;48.884;12.598;2022-12-29T07:33:48;3.60;99.90
64654;DHT22;51065;48.884;12.598;2022-12-29T07:36:15;3.70;99.90
64654;DHT22;51065;48.884;12.598;2022-12-29T07:38:41;3.70;99.90
64654;DHT22;51065;48.884;12.598;2022-12-29T07:41:07;3.80;99.90
64654;DHT22;51065;48.884;12.598;2022-12-29T07:43:32;3.80;99.90
64654;DHT22;51065;48.884;12.598;2022-12-29T07:45:58;3.90;99.90
64654;DHT22;51065;48.884;12.598;2022-12-29T07:48:24;4.00;99.90
64654;DHT22;51065;48.884;12.598;2022-12-29T07:50:49;4.00;99.90
64654;DHT22;51065;48.884;12.598;2022-12-29T07:53:15;4.00;99.90
64654;DHT22;51065;48.884;12.598;2022-12-29T07:55:41;4.00;99.90
64654;DHT22;51065;48.884;12.598;2022-12-29T07:58:07;4.10;99.90
64654;DHT22;51065;48.884;12.598;2022-12-29T08:00:32;4.20;99.90
64654;DHT22;51065;48.884;12.598;2022-12-29T08:02:58;4.30;99.90
64654;DHT22;51065;48.884;12.598;2022-12-29T08:05:24;4.30;99.90
64654;DHT22;51065;48.884;12.598;2022-12-29T08:07:50;4.40;99.90
64654;DHT22;51065;48.884;12.598;2022-12-29T08:10:15;4.40;99.90
64654;DHT22;51065;48.884;12.598;2022-12-29T08:12:42;4.50;99.90
64654;DHT22;51065;48.884;12.598;2022-12-29T08:15:09;4.50;99.90
64654;DHT22;51065;48.884;12.598;2022-12-29T08:17:35;4.60;99.90
64654;DHT22;51065;48.884;12.598;2022-12-29T08:20:00;4.60;99.90
64654;DHT22;51065;48.884;12.598;2022-12-29T08:22:26;4.50;99.90
64654;DHT22;51065;48.884;12.598;2022-12-29T08:24:51;4.40;99.90
64654;DHT22;51065;48.884;12.598;2022-12-29T08:27:17;4.50;99.90
64654;DHT22;51065;48.884;12.598;2022-12-29T08:29:43;4.60;99.90
64654;DHT22;51065;48.884;12.598;2022-12-29T08:32:09;4.60;99.90
64654;DHT22;51065;48.884;12.598;2022-12-29T08:34:34;4.70;99.90
64654;DHT22;51065;48.884;12.598;2022-12-29T08:37:00;4.80;99.90
64654;DHT22;51065;48.884;12.598;2022-12-29T08:39:26;4.80;99.90
64654;DHT22;51065;48.884;12.598;2022-12-29T08:41:51;4.90;99.90
64654;DHT22;51065;48.884;12.598;2022-12-29T08:44:17;4.90;99.90
64654;DHT22;51065;48.884;12.598;2022-12-29T08:46:43;4.80;99.90
64654;DHT22;51065;48.884;12.598;2022-12-29T08:49:08;4.90;99.90
64654;DHT22;51065;48.884;12.598;2022-12-29T08:51:34;4.90;99.90
64654;DHT22;51065;48.884;12.598;2022-12-29T08:53:59;5.00;99.90
64654;DHT22;51065;48.884;12.598;2022-12-29T08:56:25;5.10;99.90
64654;DHT22;51065;48.884;12.598;2022-12-29T08:58:51;5.00;99.90
64654;DHT22;51065;48.884;12.598;2022-12-29T09:01:17;4.90;99.90
64654;DHT22;51065;48.884;12.598;2022-12-29T09:03:43;4.90;99.90
64654;DHT22;51065;48.884;12.598;2022-12-29T09:06:09;5.10;99.90
64654;DHT22;51065;48.884;12.598;2022-12-29T09:08:34;5.40;99.90
64654;DHT22;51065;48.884;12.598;2022-12-29T09:11:15;5.70;99.90
64654;DHT22;51065;48.884;12.598;2022-12-29T09:13:41;6.20;99.90
64654;DHT22;51065;48.884;12.598;2022-12-29T09:16:07;6.80;99.90
64654;DHT22;51065;48.884;12.598;2022-12-29T09:18:33;7.10;99.90
64654;DHT22;51065;48.884;12.598;2022-12-29T09:21:00;7.10;99.90
64654;DHT22;51065;48.884;12.598;2022-12-29T09:23:26;6.80;99.90
64654;DHT22;51065;48.884;12.598;2022-12-29T09:25:53;6.60;99.90
64654;DHT22;51065;48.884;12.598;2022-12-29T09:28:19;6.60;99.90
64654;DHT22;51065;48.884;12.598;2022-12-29T09:30:45;6.50;99.90
64654;DHT22;51065;48.884;12.598;2022-12-29T09:33:10;6.50;99.90
64654;DHT22;51065;48.884;12.598;2022-12-29T09:35:36;6.40;99.90
64654;DHT22;51065;48.884;12.598;2022-12-29T09:38:01;6.80;99.90
64654;DHT22;51065;48.884;12.598;2022-12-29T09:40:30;7.50;99.90
64654;DHT22;51065;48.884;12.598;2022-12-29T09:43:16;7.70;99.90
64654;DHT22;51065;48.884;12.598;2022-12-29T09:48:37;7.00;99.90
64654;DHT22;51065;48.884;12.598;2022-12-29T09:51:11;6.80;99.90
64654;DHT22;51065;48.884;12.598;2022-12-29T09:53:41;6.70;99.90
64654;DHT22;51065;48.884;12.598;2022-12-29T09:56:19;6.70;99.90
64654;DHT22;51065;48.884;12.598;2022-12-29T10:01:44;7.00;99.90
64654;DHT22;51065;48.884;12.598;2022-12-29T10:04:12;7.10;99.90
64654;DHT22;51065;48.884;12.598;2022-12-29T10:06:54;7.10;99.90
64654;DHT22;51065;48.884;12.598;2022-12-29T10:14:37;7.20;99.90
64654;DHT22;51065;48.884;12.598;2022-12-29T10:25:29;7.40;99.90
64654;DHT22;51065;48.884;12.598;2022-12-29T10:27:59;7.30;99.90
64654;DHT22;51065;48.884;12.598;2022-12-29T10:30:26;7.30;99.90
64654;DHT22;51065;48.884;12.598;2022-12-29T10:32:58;7.10;99.90
64654;DHT22;51065;48.884;12.598;2022-12-29T10:35:37;6.90;99.90
64654;DHT22;51065;48.884;12.598;2022-12-29T10:38:21;6.90;99.90
64654;DHT22;51065;48.884;12.598;2022-12-29T10:40:56;6.80;99.90
64654;DHT22;51065;48.884;12.598;2022-12-29T10:43:33;6.80;99.90
64654;DHT22;51065;48.884;12.598;2022-12-29T10:46:04;6.80;99.90
64654;DHT22;51065;48.884;12.598;2022-12-29T10:48:34;6.80;99.90
64654;DHT22;51065;48.884;12.598;2022-12-29T10:51:04;6.80;99.90
64654;DHT22;51065;48.884;12.598;2022-12-29T10:53:38;6.80;99.90
64654;DHT22;51065;48.884;12.598;2022-12-29T10:56:14;6.70;99.90
64654;DHT22;51065;48.884;12.598;2022-12-29T10:58:43;6.70;99.90
64654;DHT22;51065;48.884;12.598;2022-12-29T11:01:12;6.60;99.90
64654;DHT22;51065;48.884;12.598;2022-12-29T11:06:37;6.70;99.90
64654;DHT22;51065;48.884;12.598;2022-12-29T11:09:22;6.80;99.90
64654;DHT22;51065;48.884;12.598;2022-12-29T11:11:49;7.00;99.90
64654;DHT22;51065;48.884;12.598;2022-12-29T11:14:21;7.20;99.90
64654;DHT22;51065;48.884;12.598;2022-12-29T11:17:04;7.40;99.90
64654;DHT22;51065;48.884;12.598;2022-12-29T11:19:32;7.40;99.90
64654;DHT22;51065;48.884;12.598;2022-12-29T11:22:24;7.40;99.90
64654;DHT22;51065;48.884;12.598;2022-12-29T11:24:52;7.40;99.90
64654;DHT22;51065;48.884;12.598;2022-12-29T11:27:19;7.50;99.90
64654;DHT22;51065;48.884;12.598;2022-12-29T11:29:48;7.60;99.90
64654;DHT22;51065;48.884;12.598;2022-12-29T11:32:41;7.70;99.90
64654;DHT22;51065;48.884;12.598;2022-12-29T11:35:40;7.90;99.90
64654;DHT22;51065;48.884;12.598;2022-12-29T11:38:07;8.40;99.90
64654;DHT22;51065;48.884;12.598;2022-12-29T11:40:41;8.60;99.90
64654;DHT22;51065;48.884;12.598;2022-12-29T11:43:22;8.80;99.90
64654;DHT22;51065;48.884;12.598;2022-12-29T11:45:48;8.60;99.90
64654;DHT22;51065;48.884;12.598;2022-12-29T11:48:19;8.20;99.90
64654;DHT22;51065;48.884;12.598;2022-12-29T11:50:52;8.10;99.90
64654;DHT22;51065;48.884;12.598;2022-12-29T11:53:24;8.20;99.90
64654;DHT22;51065;48.884;12.598;2022-12-29T11:55:57;8.30;99.90
64654;DHT22;51065;48.884;12.598;2022-12-29T11:58:31;8.50;99.90
64654;DHT22;51065;48.884;12.598;2022-12-29T12:01:16;8.50;99.90
64654;DHT22;51065;48.884;12.598;2022-12-29T12:04:03;8.50;99.90
64654;DHT22;51065;48.884;12.598;2022-12-29T12:06:33;8.50;99.90
64654;DHT22;51065;48.884;12.598;2022-12-29T12:09:08;8.70;99.90
64654;DHT22;51065;48.884;12.598;2022-12-29T12:11:39;8.70;99.90
64654;DHT22;51065;48.884;12.598;2022-12-29T12:14:20;8.90;99.90
64654;DHT22;51065;48.884;12.598;2022-12-29T12:16:59;9.30;99.90
64654;DHT22;51065;48.884;12.598;2022-12-29T12:20:10;9.90;99.90
64654;DHT22;51065;48.884;12.598;2022-12-29T12:25:43;9.90;98.50
64654;DHT22;51065;48.884;12.598;2022-12-29T12:28:36;9.00;99.90
64654;DHT22;51065;48.884;12.598;2022-12-29T12:31:32;8.50;99.90
64654;DHT22;51065;48.884;12.598;2022-12-29T12:33:57;8.40;99.90
64654;DHT22;51065;48.884;12.598;2022-12-29T12:42:25;8.10;99.90
64654;DHT22;51065;48.884;12.598;2022-12-29T12:47:58;9.90;99.90
64654;DHT22;51065;48.884;12.598;2022-12-29T12:53:38;12.00;88.40
64654;DHT22;51065;48.884;12.598;2022-12-29T12:59:02;13.20;68.30
64654;DHT22;51065;48.884;12.598;2022-12-29T13:02:13;12.90;67.60
64654;DHT22;51065;48.884;12.598;2022-12-29T13:07:40;10.90;84.50
64654;DHT22;51065;48.884;12.598;2022-12-29T13:10:48;10.10;99.40
64654;DHT22;51065;48.884;12.598;2022-12-29T13:19:01;9.00;99.90
64654;DHT22;51065;48.884;12.598;2022-12-29T13:30:51;9.10;99.90
64654;DHT22;51065;48.884;12.598;2022-12-29T13:33:40;9.20;99.90
64654;DHT22;51065;48.884;12.598;2022-12-29T13:36:29;9.20;99.90
64654;DHT22;51065;48.884;12.598;2022-12-29T13:39:02;9.30;99.90
64654;DHT22;51065;48.884;12.598;2022-12-29T13:41:37;9.20;99.90
64654;DHT22;51065;48.884;12.598;2022-12-29T13:44:05;9.20;99.90
64654;DHT22;51065;48.884;12.598;2022-12-29T13:46:43;9.10;99.90
64654;DHT22;51065;48.884;12.598;2022-12-29T13:49:17;9.10;99.90
64654;DHT22;51065;48.884;12.598;2022-12-29T13:51:48;9.10;99.90
64654;DHT22;51065;48.884;12.598;2022-12-29T13:57:18;9.10;99.90
64654;DHT22;51065;48.884;12.598;2022-12-29T14:06:19;9.10;99.90
64654;DHT22;51065;48.884;12.598;2022-12-29T14:08:46;9.10;99.90
64654;DHT22;51065;48.884;12.598;2022-12-29T14:11:15;9.00;99.90
64654;DHT22;51065;48.884;12.598;2022-12-29T14:13:44;9.00;99.90
64654;DHT22;51065;48.884;12.598;2022-12-29T14:16:27;9.00;99.90
64654;DHT22;51065;48.884;12.598;2022-12-29T14:18:53;8.90;99.90
64654;DHT22;51065;48.884;12.598;2022-12-29T14:21:21;8.80;99.90
64654;DHT22;51065;48.884;12.598;2022-12-29T14:23:50;8.80;99.90
64654;DHT22;51065;48.884;12.598;2022-12-29T14:28:55;8.60;99.90
64654;DHT22;51065;48.884;12.598;2022-12-29T14:36:39;8.60;99.90
64654;DHT22;51065;48.884;12.598;2022-12-29T14:39:31;8.50;99.90
64654;DHT22;51065;48.884;12.598;2022-12-29T14:42:20;8.50;99.90
64654;DHT22;51065;48.884;12.598;2022-12-29T14:47:44;8.40;99.90
64654;DHT22;51065;48.884;12.598;2022-12-29T14:53:40;8.40;99.90
64654;DHT22;51065;48.884;12.598;2022-12-29T14:55:55;8.30;99.90
64654;DHT22;51065;48.884;12.598;2022-12-29T14:58:30;8.20;99.90
64654;DHT22;51065;48.884;12.598;2022-12-29T15:00:58;8.10;99.90
64654;DHT22;51065;48.884;12.598;2022-12-29T15:03:29;8.00;99.90
64654;DHT22;51065;48.884;12.598;2022-12-29T15:05:55;7.90;99.90
64654;DHT22;51065;48.884;12.598;2022-12-29T15:08:25;7.90;99.90
64654;DHT22;51065;48.884;12.598;2022-12-29T15:13:40;7.80;99.90
64654;DHT22;51065;48.884;12.598;2022-12-29T15:16:21;7.80;99.90
64654;DHT22;51065;48.884;12.598;2022-12-29T15:18:47;7.80;99.90
64654;DHT22;51065;48.884;12.598;2022-12-29T15:21:14;7.80;99.90
64654;DHT22;51065;48.884;12.598;2022-12-29T15:23:43;7.80;99.90
64654;DHT22;51065;48.884;12.598;2022-12-29T15:26:10;7.80;99.90
64654;DHT22;51065;48.884;12.598;2022-12-29T15:28:44;7.80;99.90
64654;DHT22;51065;48.884;12.598;2022-12-29T15:31:15;7.80;99.90
64654;DHT22;51065;48.884;12.598;2022-12-29T15:33:43;7.80;99.90
64654;DHT22;51065;48.884;12.598;2022-12-29T15:36:24;7.80;99.90
64654;DHT22;51065;48.884;12.598;2022-12-29T15:38:50;7.80;99.90
64654;DHT22;51065;48.884;12.598;2022-12-29T15:41:36;7.70;99.90
64654;DHT22;51065;48.884;12.598;2022-12-29T15:44:29;7.70;99.90
64654;DHT22;51065;48.884;12.598;2022-12-29T15:46:57;7.70;99.90
64654;DHT22;51065;48.884;12.598;2022-12-29T15:49:23;7.60;99.90
64654;DHT22;51065;48.884;12.598;2022-12-29T15:51:49;7.60;99.90
64654;DHT22;51065;48.884;12.598;2022-12-29T15:54:21;7.60;99.90
64654;DHT22;51065;48.884;12.598;2022-12-29T15:56:49;7.60;99.90
64654;DHT22;51065;48.884;12.598;2022-12-29T15:59:35;7.50;99.90
64654;DHT22;51065;48.884;12.598;2022-12-29T16:02:02;7.50;99.90
64654;DHT22;51065;48.884;12.598;2022-12-29T16:04:30;7.40;99.90
64654;DHT22;51065;48.884;12.598;2022-12-29T16:06:59;7.30;99.90
64654;DHT22;51065;48.884;12.598;2022-12-29T16:09:33;7.30;99.90
64654;DHT22;51065;48.884;12.598;2022-12-29T16:12:03;7.20;99.90
64654;DHT22;51065;48.884;12.598;2022-12-29T16:14:34;7.00;99.90
64654;DHT22;51065;48.884;12.598;2022-12-29T16:17:03;7.00;99.90
64654;DHT22;51065;48.884;12.598;2022-12-29T16:19:36;6.90;99.90
64654;DHT22;51065;48.884;12.598;2022-12-29T16:22:10;6.80;99.90
64654;DHT22;51065;48.884;12.598;2022-12-29T16:24:37;6.70;99.90
64654;DHT22;51065;48.884;12.598;2022-12-29T16:27:31;6.70;99.90
64654;DHT22;51065;48.884;12.598;2022-12-29T16:29:57;6.60;99.90
64654;DHT22;51065;48.884;12.598;2022-12-29T16:32:28;6.50;99.90
64654;DHT22;51065;48.884;12.598;2022-12-29T16:35:09;6.50;99.90
64654;DHT22;51065;48.884;12.598;2022-12-29T16:37:35;6.30;99.90
64654;DHT22;51065;48.884;12.598;2022-12-29T16:50:37;5.70;99.90
64654;DHT22;51065;48.884;12.598;2022-12-29T16:53:04;5.70;99.90
64654;DHT22;51065;48.884;12.598;2022-12-29T16:55:31;5.60;99.90
64654;DHT22;51065;48.884;12.598;2022-12-29T16:57:58;5.70;99.90
64654;DHT22;51065;48.884;12.598;2022-12-29T17:00:34;5.70;99.90
64654;DHT22;51065;48.884;12.598;2022-12-29T17:03:00;5.70;99.90
64654;DHT22;51065;48.884;12.598;2022-12-29T17:05:27;5.70;99.90
64654;DHT22;51065;48.884;12.598;2022-12-29T17:07:52;5.80;99.90
64654;DHT22;51065;48.884;12.598;2022-12-29T17:10:18;5.80;99.90
64654;DHT22;51065;48.884;12.598;2022-12-29T17:12:47;5.70;99.90
64654;DHT22;51065;48.884;12.598;2022-12-29T17:15:25;5.70;99.90
64654;DHT22;51065;48.884;12.598;2022-12-29T17:17:53;5.80;99.90
64654;DHT22;51065;48.884;12.598;2022-12-29T17:20:20;5.80;99.90
64654;DHT22;51065;48.884;12.598;2022-12-29T17:22:47;5.90;99.90
64654;DHT22;51065;48.884;12.598;2022-12-29T17:25:15;5.90;99.90
64654;DHT22;51065;48.884;12.598;2022-12-29T17:27:46;6.00;99.90
64654;DHT22;51065;48.884;12.598;2022-12-29T17:30:19;6.00;99.90
64654;DHT22;51065;48.884;12.598;2022-12-29T17:32:53;6.00;99.90
64654;DHT22;51065;48.884;12.598;2022-12-29T17:35:22;6.10;99.90
64654;DHT22;51065;48.884;12.598;2022-12-29T17:37:48;6.10;99.90
64654;DHT22;51065;48.884;12.598;2022-12-29T17:40:19;6.10;99.90
64654;DHT22;51065;48.884;12.598;2022-12-29T17:42:48;6.00;99.90
64654;DHT22;51065;48.884;12.598;2022-12-29T17:45:15;6.00;99.90
64654;DHT22;51065;48.884;12.598;2022-12-29T17:47:41;5.90;99.90